CheckWX is a tool to help pilots better visualize weather data.  It is not intended as a substitute for an official pre-flight weather briefing.

20:35:26 UTC

LIRF METAR
Leonardo da Vinci–Fiumicino Airport
Rome, Italy
Current

15 mins ago

LIRF 162020Z 33007KT CAVOK 24/12 Q1011 NOSIG
Observed
Jul-16 @ 20:20 UTC
Wind
  • 330° at 7 KTS
Visibility
10,000+ meters
Flight Rules
VFR
Cloud Levels
  • Clear skies
Temperature
24°C / 75°F
Dewpoint
12°C / 54°F
Humidity
47%
Altimeter
29.85" Hg
Pressure
1010.92 hPa
Previous

45 mins ago

LIRF 161950Z 32007KT CAVOK 24/12 Q1011 NOSIG
Observed
Jul-16 @ 19:50 UTC
Wind
  • 320° at 7 KTS
Visibility
10,000+ meters
Flight Rules
VFR
Cloud Levels
  • Clear skies
Temperature
24°C / 75°F
Dewpoint
12°C / 54°F
Humidity
47%
Altimeter
29.85" Hg
Pressure
1010.92 hPa
Previous

1 hour ago

LIRF 161920Z 34007KT CAVOK 25/12 Q1010 NOSIG
Observed
Jul-16 @ 19:20 UTC
Wind
  • 340° at 7 KTS
Visibility
10,000+ meters
Flight Rules
VFR
Cloud Levels
  • Clear skies
Temperature
25°C / 77°F
Dewpoint
12°C / 54°F
Humidity
44%
Altimeter
29.82" Hg
Pressure
1009.92 hPa